Time,TemperatureF,DewpointF,PressureIn,WindDirection,WindDirectionDegrees,WindSpeedMPH,WindSpeedGustMPH,Humidity,HourlyPrecipIn,Conditions,Clouds,dailyrainin,SoftwareType,DateUTC
2013-08-28 00:00:00,58.3,49.3,29.82,WSW,248,0.0,1.0,72,0.00,,,0.00,WUHU216DAVISVP2,2013-08-28 07:00:00,
2013-08-28 00:15:00,58.3,48.6,29.82,SSW,203,0.0,2.0,70,0.00,,,0.00,WUHU216DAVISVP2,2013-08-28 07:15:00,
2013-08-28 00:30:00,58.6,48.5,29.81,WSW,248,0.0,2.0,69,0.00,,,0.00,WUHU216DAVISVP2,2013-08-28 07:30:00,
2013-08-28 00:45:00,58.2,49.2,29.82,WNW,293,0.0,1.0,72,0.00,,,0.00,WUHU216DAVISVP2,2013-08-28 07:45:00,
2013-08-28 01:00:00,57.7,48.4,29.81,SSE,158,0.0,1.0,71,0.00,,,0.00,WUHU216DAVISVP2,2013-08-28 08:00:00,
2013-08-28 01:15:00,57.6,49.0,29.81,SW,225,0.0,1.0,73,0.00,,,0.00,WUHU216DAVISVP2,2013-08-28 08:15:00,
2013-08-28 01:30:00,56.8,48.2,29.81,SSW,203,0.0,1.0,73,0.00,,,0.00,WUHU216DAVISVP2,2013-08-28 08:30:00,
2013-08-28 01:45:00,57.0,49.2,29.81,WSW,248,0.0,1.0,75,0.00,,,0.00,WUHU216DAVISVP2,2013-08-28 08:45:00,
2013-08-28 02:00:00,56.6,48.8,29.81,SSW,203,0.0,1.0,75,0.00,,,0.00,WUHU216DAVISVP2,2013-08-28 09:00:00,
2013-08-28 02:15:00,56.8,48.2,29.81,North,0,0.0,0.0,73,0.00,,,0.00,WUHU216DAVISVP2,2013-08-28 09:15:00,
2013-08-28 02:30:00,57.2,49.3,29.81,SSW,203,0.0,1.0,75,0.00,,,0.00,WUHU216DAVISVP2,2013-08-28 09:30:00,
2013-08-28 02:45:00,56.5,48.3,29.80,SSW,203,0.0,1.0,74,0.00,,,0.00,WUHU216DAVISVP2,2013-08-28 09:45:00,
2013-08-28 03:00:00,55.9,48.8,29.80,SSW,203,0.0,1.0,77,0.00,,,0.00,WUHU216DAVISVP2,2013-08-28 10:00:00,
2013-08-28 03:15:00,55.4,47.6,29.80,SSW,203,0.0,2.0,75,0.00,,,0.00,WUHU216DAVISVP2,2013-08-28 10:15:00,
2013-08-28 03:30:00,55.3,47.9,29.80,North,0,0.0,0.0,76,0.00,,,0.00,WUHU216DAVISVP2,2013-08-28 10:30:00,
2013-08-28 03:45:00,55.0,47.2,29.81,North,0,0.0,0.0,75,0.00,,,0.00,WUHU216DAVISVP2,2013-08-28 10:45:00,
2013-08-28 04:00:00,55.5,47.7,29.80,SW,225,0.0,1.0,75,0.00,,,0.00,WUHU216DAVISVP2,2013-08-28 11:00:00,
2013-08-28 04:15:00,55.0,48.3,29.80,North,0,0.0,0.0,78,0.00,,,0.00,WUHU216DAVISVP2,2013-08-28 11:15:00,
2013-08-28 04:30:00,54.0,47.6,29.81,North,0,0.0,0.0,79,0.00,,,0.00,WUHU216DAVISVP2,2013-08-28 11:30:00,
2013-08-28 04:45:00,54.3,47.9,29.81,North,0,0.0,0.0,79,0.00,,,0.00,WUHU216DAVISVP2,2013-08-28 11:45:00,
2013-08-28 05:00:00,53.5,48.5,29.81,North,0,0.0,0.0,83,0.00,,,0.00,WUHU216DAVISVP2,2013-08-28 12:00:00,
2013-08-28 05:15:00,53.4,47.7,29.81,North,0,0.0,0.0,81,0.00,,,0.00,WUHU216DAVISVP2,2013-08-28 12:15:00,
2013-08-28 05:30:00,53.7,47.7,29.81,North,0,0.0,0.0,80,0.00,,,0.00,WUHU216DAVISVP2,2013-08-28 12:30:00,
2013-08-28 05:45:00,53.5,48.1,29.82,North,0,0.0,0.0,82,0.00,,,0.00,WUHU216DAVISVP2,2013-08-28 12:45:00,
2013-08-28 06:00:00,53.4,47.7,29.82,North,0,0.0,0.0,81,0.00,,,0.00,WUHU216DAVISVP2,2013-08-28 13:00:00,
2013-08-28 06:15:00,53.5,48.5,29.82,North,0,0.0,0.0,83,0.00,,,0.00,WUHU216DAVISVP2,2013-08-28 13:15:00,
2013-08-28 06:30:00,54.2,48.2,29.83,North,0,0.0,0.0,80,0.00,,,0.00,WUHU216DAVISVP2,2013-08-28 13:30:00,
2013-08-28 06:45:00,55.7,50.0,29.83,North,0,0.0,0.0,81,0.00,,,0.00,WUHU216DAVISVP2,2013-08-28 13:45:00,
2013-08-28 07:00:00,56.2,48.7,29.83,North,0,0.0,0.0,76,0.00,,,0.00,WUHU216DAVISVP2,2013-08-28 14:00:00,
2013-08-28 07:15:00,59.0,49.2,29.83,North,0,0.0,0.0,70,0.00,,,0.00,WUHU216DAVISVP2,2013-08-28 14:15:00,
2013-08-28 07:30:00,62.0,50.5,29.83,North,0,0.0,0.0,66,0.00,,,0.00,WUHU216DAVISVP2,2013-08-28 14:30:00,
2013-08-28 07:45:00,63.0,51.5,29.83,North,0,0.0,0.0,66,0.00,,,0.00,WUHU216DAVISVP2,2013-08-28 14:45:00,
2013-08-28 08:00:00,63.1,50.7,29.83,North,0,0.0,2.0,64,0.00,,,0.00,WUHU216DAVISVP2,2013-08-28 15:00:00,
2013-08-28 08:15:00,64.6,51.3,29.83,NNE,23,0.0,2.0,62,0.00,,,0.00,WUHU216DAVISVP2,2013-08-28 15:15:00,
2013-08-28 08:30:00,65.4,52.0,29.83,NE,45,1.0,3.0,62,0.00,,,0.00,WUHU216DAVISVP2,2013-08-28 15:30:00,
2013-08-28 08:45:00,65.9,51.6,29.83,NE,45,1.0,3.0,60,0.00,,,0.00,WUHU216DAVISVP2,2013-08-28 15:45:00,
2013-08-28 09:00:00,66.7,51.5,29.83,North,0,1.0,3.0,58,0.00,,,0.00,WUHU216DAVISVP2,2013-08-28 16:00:00,
2013-08-28 09:15:00,67.6,51.8,29.82,North,0,2.0,5.0,57,0.00,,,0.00,WUHU216DAVISVP2,2013-08-28 16:15:00,
2013-08-28 09:30:00,68.1,52.3,29.82,North,0,1.0,4.0,57,0.00,,,0.00,WUHU216DAVISVP2,2013-08-28 16:30:00,
2013-08-28 09:45:00,69.2,52.3,29.82,North,0,2.0,6.0,55,0.00,,,0.00,WUHU216DAVISVP2,2013-08-28 16:45:00,
2013-08-28 10:00:00,69.7,51.8,29.82,North,0,2.0,6.0,53,0.00,,,0.00,WUHU216DAVISVP2,2013-08-28 17:00:00,
2013-08-28 10:15:00,70.7,52.7,29.82,North,0,2.0,7.0,53,0.00,,,0.00,WUHU216DAVISVP2,2013-08-28 17:15:00,
2013-08-28 10:30:00,71.7,53.1,29.82,North,0,2.0,6.0,52,0.00,,,0.00,WUHU216DAVISVP2,2013-08-28 17:30:00,
2013-08-28 10:45:00,72.5,52.8,29.81,North,0,3.0,7.0,50,0.00,,,0.00,WUHU216DAVISVP2,2013-08-28 17:45:00,
2013-08-28 11:00:00,73.3,53.0,29.81,North,0,2.0,6.0,49,0.00,,,0.00,WUHU216DAVISVP2,2013-08-28 18:00:00,
2013-08-28 11:15:00,74.4,54.0,29.81,North,0,3.0,8.0,49,0.00,,,0.00,WUHU216DAVISVP2,2013-08-28 18:15:00,
2013-08-28 11:30:00,75.8,54.1,29.80,WNW,293,3.0,8.0,47,0.00,,,0.00,WUHU216DAVISVP2,2013-08-28 18:30:00,
2013-08-28 11:45:00,77.0,54.0,29.80,North,0,3.0,10.0,45,0.00,,,0.00,WUHU216DAVISVP2,2013-08-28 18:45:00,
2013-08-28 12:00:00,77.2,54.2,29.80,North,0,4.0,11.0,45,0.00,,,0.00,WUHU216DAVISVP2,2013-08-28 19:00:00,
2013-08-28 12:15:00,77.8,54.8,29.79,North,0,3.0,9.0,45,0.00,,,0.00,WUHU216DAVISVP2,2013-08-28 19:15:00,
2013-08-28 12:30:00,78.5,54.8,29.79,North,0,4.0,10.0,44,0.00,,,0.00,WUHU216DAVISVP2,2013-08-28 19:30:00,
2013-08-28 12:45:00,77.2,54.8,29.79,WNW,293,2.0,10.0,46,0.00,,,0.00,WUHU216DAVISVP2,2013-08-28 19:45:00,
2013-08-28 13:00:00,76.8,53.2,29.79,WNW,293,2.0,6.0,44,0.00,,,0.00,WUHU216DAVISVP2,2013-08-28 20:00:00,
2013-08-28 13:15:00,77.9,53.6,29.79,WNW,293,2.0,10.0,43,0.00,,,0.00,WUHU216DAVISVP2,2013-08-28 20:15:00,
2013-08-28 13:30:00,80.0,54.2,29.78,WNW,293,2.0,7.0,41,0.00,,,0.00,WUHU216DAVISVP2,2013-08-28 20:30:00,
2013-08-28 13:45:00,80.6,54.0,29.77,WNW,293,3.0,7.0,40,0.00,,,0.00,WUHU216DAVISVP2,2013-08-28 20:45:00,
2013-08-28 14:00:00,82.0,54.6,29.77,WNW,293,3.0,8.0,39,0.00,,,0.00,WUHU216DAVISVP2,2013-08-28 21:00:00,
2013-08-28 14:15:00,82.0,55.3,29.77,WNW,293,3.0,7.0,40,0.00,,,0.00,WUHU216DAVISVP2,2013-08-28 21:15:00,
2013-08-28 14:30:00,82.2,54.8,29.76,WNW,293,2.0,8.0,39,0.00,,,0.00,WUHU216DAVISVP2,2013-08-28 21:30:00,
2013-08-28 14:45:00,82.5,56.4,29.77,WNW,293,3.0,7.0,41,0.00,,,0.00,WUHU216DAVISVP2,2013-08-28 21:45:00,
2013-08-28 15:00:00,81.3,54.7,29.76,WNW,293,2.0,6.0,40,0.00,,,0.00,WUHU216DAVISVP2,2013-08-28 22:00:00,
2013-08-28 15:15:00,82.1,55.4,29.76,North,0,2.0,10.0,40,0.00,,,0.00,WUHU216DAVISVP2,2013-08-28 22:15:00,
2013-08-28 15:30:00,83.3,55.8,29.75,North,0,3.0,12.0,39,0.00,,,0.00,WUHU216DAVISVP2,2013-08-28 22:30:00,
2013-08-28 15:45:00,83.9,56.3,29.75,WNW,293,3.0,11.0,39,0.00,,,0.00,WUHU216DAVISVP2,2013-08-28 22:45:00,
2013-08-28 16:00:00,84.5,56.1,29.76,WNW,293,3.0,8.0,38,0.00,,,0.00,WUHU216DAVISVP2,2013-08-28 23:00:00,
2013-08-28 16:15:00,83.8,56.2,29.76,WNW,293,3.0,10.0,39,0.00,,,0.00,WUHU216DAVISVP2,2013-08-28 23:15:00,
2013-08-28 16:30:00,82.5,55.7,29.76,WNW,293,3.0,9.0,40,0.00,,,0.00,WUHU216DAVISVP2,2013-08-28 23:30:00,
2013-08-28 16:45:00,83.1,55.6,29.76,WNW,293,3.0,10.0,39,0.00,,,0.00,WUHU216DAVISVP2,2013-08-28 23:45:00,
2013-08-28 17:00:00,83.5,57.3,29.77,WNW,293,3.0,7.0,41,0.00,,,0.00,WUHU216DAVISVP2,2013-08-29 00:00:00,
2013-08-28 17:15:00,81.9,57.8,29.77,WNW,293,2.0,11.0,44,0.00,,,0.00,WUHU216DAVISVP2,2013-08-29 00:15:00,
2013-08-28 17:30:00,80.3,57.0,29.77,WNW,293,2.0,9.0,45,0.00,,,0.00,WUHU216DAVISVP2,2013-08-29 00:30:00,
2013-08-28 17:45:00,78.6,57.3,29.78,WNW,293,2.0,6.0,48,0.00,,,0.00,WUHU216DAVISVP2,2013-08-29 00:45:00,
2013-08-28 18:00:00,77.4,56.7,29.78,WNW,293,1.0,7.0,49,0.00,,,0.00,WUHU216DAVISVP2,2013-08-29 01:00:00,
2013-08-28 18:15:00,76.4,56.9,29.79,WNW,293,2.0,8.0,51,0.00,,,0.00,WUHU216DAVISVP2,2013-08-29 01:15:00,
2013-08-28 18:30:00,75.5,56.6,29.79,WNW,293,1.0,5.0,52,0.00,,,0.00,WUHU216DAVISVP2,2013-08-29 01:30:00,
2013-08-28 18:45:00,74.6,56.9,29.80,West,270,1.0,6.0,54,0.00,,,0.00,WUHU216DAVISVP2,2013-08-29 01:45:00,
2013-08-28 19:00:00,73.8,56.1,29.80,West,270,1.0,4.0,54,0.00,,,0.00,WUHU216DAVISVP2,2013-08-29 02:00:00,
2013-08-28 19:15:00,73.2,56.6,29.81,WSW,248,1.0,5.0,56,0.00,,,0.00,WUHU216DAVISVP2,2013-08-29 02:15:00,
2013-08-28 19:30:00,72.7,56.6,29.82,WSW,248,1.0,5.0,57,0.00,,,0.00,WUHU216DAVISVP2,2013-08-29 02:30:00,
2013-08-28 19:45:00,72.0,56.4,29.82,WSW,248,1.0,4.0,58,0.00,,,0.00,WUHU216DAVISVP2,2013-08-29 02:45:00,
2013-08-28 20:00:00,71.7,56.1,29.83,WSW,248,1.0,3.0,58,0.00,,,0.00,WUHU216DAVISVP2,2013-08-29 03:00:00,
2013-08-28 20:15:00,70.7,56.1,29.83,WSW,248,0.0,2.0,60,0.00,,,0.00,WUHU216DAVISVP2,2013-08-29 03:15:00,
2013-08-28 20:30:00,69.5,56.3,29.83,SW,225,1.0,2.0,63,0.00,,,0.00,WUHU216DAVISVP2,2013-08-29 03:30:00,
2013-08-28 20:45:00,68.4,56.2,29.84,WSW,248,1.0,3.0,65,0.00,,,0.00,WUHU216DAVISVP2,2013-08-29 03:45:00,
2013-08-28 21:00:00,67.1,55.8,29.84,WSW,248,1.0,3.0,67,0.00,,,0.00,WUHU216DAVISVP2,2013-08-29 04:00:00,
2013-08-28 21:15:00,66.1,55.2,29.84,WSW,248,1.0,3.0,68,0.00,,,0.00,WUHU216DAVISVP2,2013-08-29 04:15:00,
2013-08-28 21:30:00,66.5,54.4,29.84,WSW,248,2.0,5.0,65,0.00,,,0.00,WUHU216DAVISVP2,2013-08-29 04:30:00,
2013-08-28 21:45:00,67.6,55.0,29.85,WSW,248,1.0,4.0,64,0.00,,,0.00,WUHU216DAVISVP2,2013-08-29 04:45:00,
2013-08-28 22:00:00,67.9,55.3,29.85,WSW,248,1.0,4.0,64,0.00,,,0.00,WUHU216DAVISVP2,2013-08-29 05:00:00,
2013-08-28 22:15:00,67.1,55.8,29.85,WSW,248,1.0,3.0,67,0.00,,,0.00,WUHU216DAVISVP2,2013-08-29 05:15:00,
2013-08-28 22:30:00,65.2,55.2,29.84,SSW,203,0.0,1.0,70,0.00,,,0.00,WUHU216DAVISVP2,2013-08-29 05:30:00,
2013-08-28 22:45:00,64.6,55.0,29.85,West,270,0.0,2.0,71,0.00,,,0.00,WUHU216DAVISVP2,2013-08-29 05:45:00,
2013-08-28 23:00:00,64.3,54.7,29.85,SW,225,0.0,2.0,71,0.00,,,0.00,WUHU216DAVISVP2,2013-08-29 06:00:00,
2013-08-28 23:15:00,63.7,55.3,29.85,SE,135,0.0,1.0,74,0.00,,,0.00,WUHU216DAVISVP2,2013-08-29 06:15:00,
2013-08-28 23:30:00,63.2,54.4,29.85,WSW,248,0.0,2.0,73,0.00,,,0.00,WUHU216DAVISVP2,2013-08-29 06:30:00,
2013-08-28 23:45:00,63.0,54.9,29.85,East,90,0.0,1.0,75,0.00,,,0.00,WUHU216DAVISVP2,2013-08-29 06:45:00,